Afton, Wisconsin
Current Conditions -  °F | °C
As of 1:05 PM on Wednesday 26 Nov 2014 (Local Time) from KJVL Reporting Station
Overcast Overcast  
Wind Chill: 21°   Ceiling: 1300
Heat Index: 27°   Visibility: 7mi
Dew Point: 21°   Wind: 5mph
Humidity: 80%   Direction: 100°E
Pressure: 30.11"   Gusts: NA
Location:  42.6°N, 89.07°W
Report Text: KJVL 261905Z 10004KT 7SM OVC013 M03/M06 A3011
Loading
Personal Weather Stations






























Interactive Weather Map New forecast layout! Learn more

10-Day Weather Forecast

Advertisements
Track Severe Weather on mobile